Time;durP1;ratioP1;P1;durP2;ratioP2;P2;SDS_P1;SDS_P2;PMS_P1;PMS_P2;Temp;Humidity;BMP_temperature;BMP_pressure;BME280_temperature;BME280_humidity;BME280_pressure;Samples;Min_cycle;Max_cycle;Signal;HPM_P1;HPM_P2
2022/01/22 07:14:45;;;;;;;;;;;;;;;4.40;100.00;101557.00;6268188;22;20046;-67
2022/01/22 07:17:11;;;;;;;;;;;;;;;4.41;100.00;101889.53;6270624;22;20335;-67
2022/01/22 07:19:40;;;;;;;;;;;;;;;4.56;100.00;102073.91;6270770;22;19911;-67
2022/01/22 07:22:19;;;;;;;;;;;;;;;4.47;100.00;102144.97;6270397;22;19911;-66
2022/01/22 07:24:45;;;;;;;;;;;;;;;4.59;100.00;102154.84;6269598;22;20358;-66
2022/01/22 07:27:10;;;;;;;;;;;;;;;4.63;100.00;102191.56;6270465;22;19907;-65
2022/01/22 07:29:36;;;;;;;;;;;;;;;4.55;100.00;102187.00;6266564;22;20382;-65
2022/01/22 07:32:03;;;;;;;;;;;;;;;4.60;100.00;102193.19;6269328;22;19921;-67
2022/01/22 07:34:28;;;;;;;;;;;;;;;4.67;100.00;102211.31;6268550;22;19957;-68
2022/01/22 07:36:54;;;;;;;;;;;;;;;4.67;100.00;102184.09;6241445;22;19919;-66
2022/01/22 07:39:19;;;;;;;;;;;;;;;4.44;100.00;102221.38;6269560;22;19977;-68
2022/01/22 07:41:46;;;;;;;;;;;;;;;4.54;100.00;102249.09;6269550;22;19938;-67
2022/01/22 07:44:11;;;;;;;;;;;;;;;4.53;100.00;102139.25;6269728;22;19925;-70
2022/01/22 07:46:37;;;;;;;;;;;;;;;4.53;100.00;102216.69;6269906;22;19911;-67
2022/01/22 07:49:05;;;;;;;;;;;;;;;4.60;100.00;102114.06;6269429;22;19950;-66
2022/01/22 07:51:30;;;;;;;;;;;;;;;4.57;100.00;102162.44;6269560;22;19921;-67
2022/01/22 07:53:55;;;;;;;;;;;;;;;4.53;100.00;102090.75;6269788;22;20183;-69
2022/01/22 07:56:21;;;;;;;;;;;;;;;4.57;100.00;102149.66;6271114;22;19907;-68
2022/01/22 07:58:47;;;;;;;;;;;;;;;4.42;100.00;102087.75;6269980;22;19911;-66
2022/01/22 08:01:12;;;;;;;;;;;;;;;4.55;100.00;102128.31;6269402;22;19920;-66
2022/01/22 08:03:37;;;;;;;;;;;;;;;4.65;100.00;102164.44;6269293;22;19907;-68
2022/01/22 08:06:03;;;;;;;;;;;;;;;4.66;100.00;102209.59;6243605;22;19982;-67
2022/01/22 08:08:28;;;;;;;;;;;;;;;4.62;100.00;102206.03;6270677;22;20330;-65
2022/01/22 08:10:54;;;;;;;;;;;;;;;4.68;100.00;102205.44;6270437;22;19907;-66
2022/01/22 08:13:21;;;;;;;;;;;;;;;4.53;100.00;102209.03;6270072;22;19919;-66
2022/01/22 08:15:46;;;;;;;;;;;;;;;4.78;100.00;102225.44;6269668;22;19911;-66
2022/01/22 08:18:11;;;;;;;;;;;;;;;4.61;100.00;102168.56;6270058;22;20317;-67
2022/01/22 08:20:37;;;;;;;;;;;;;;;4.74;100.00;102182.69;6269766;22;20343;-66
2022/01/22 08:23:02;;;;;;;;;;;;;;;4.74;100.00;102195.47;6270134;22;19934;-65
2022/01/22 08:25:30;;;;;;;;;;;;;;;4.77;100.00;102185.41;6268807;22;19914;-66
2022/01/22 08:30:23;;;;;;;;;;;;;;;4.76;100.00;102173.44;6272514;22;19915;-65
2022/01/22 08:33:07;;;;;;;;;;;;;;;4.60;100.00;102121.72;6269131;22;19915;-67
2022/01/22 08:41:19;;;;;;;;;;;;;;;4.63;100.00;102160.94;6270039;22;19930;-68
2022/01/22 08:43:44;;;;;;;;;;;;;;;4.78;100.00;102166.72;6270749;22;20395;-68
2022/01/22 09:23:20;;;;;;;;;;;;;;;4.66;100.00;102112.59;6273762;22;20385;-64
2022/01/22 09:25:46;;;;;;;;;;;;;;;4.79;100.00;102146.34;6266366;22;19915;-66
2022/01/22 10:29:28;;;;;;;;;;;;;;;5.31;100.00;102203.81;6242605;22;19922;-66
2022/01/22 10:32:01;;;;;;;;;;;;;;;5.24;100.00;102172.06;6243299;23;19912;-65
2022/01/22 11:14:10;;;;;;;;;;;;;;;6.06;100.00;101617.53;6241805;23;19946;-65
2022/01/22 11:16:40;;;;;;;;;;;;;;;5.99;100.00;101561.91;6218593;23;19907;-64
2022/01/22 11:19:06;;;;;;;;;;;;;;;6.11;100.00;101536.66;6243695;22;19956;-65
2022/01/22 11:21:32;;;;;;;;;;;;;;;6.02;100.00;101475.03;6224533;23;19915;-65
2022/01/22 11:23:57;;;;;;;;;;;;;;;5.98;100.00;101452.78;6243720;23;19982;-65
2022/01/22 11:26:23;;;;;;;;;;;;;;;5.98;100.00;101445.97;6245258;23;19914;-64
2022/01/22 11:28:49;;;;;;;;;;;;;;;6.17;100.00;101438.75;6244919;22;19966;-65
2022/01/22 11:31:15;;;;;;;;;;;;;;;6.17;100.00;101411.47;6243592;23;19982;-64
2022/01/22 11:33:41;;;;;;;;;;;;;;;5.86;100.00;100873.69;6243178;23;19916;-64
2022/01/22 11:36:09;;;;;;;;;;;;;;;6.05;100.00;101183.50;6242660;23;19983;-65
2022/01/22 11:38:35;;;;;;;;;;;;;;;6.22;100.00;101345.91;6241402;22;19907;-66
2022/01/22 11:41:02;;;;;;;;;;;;;;;6.12;100.00;101367.00;6242656;23;19912;-66
2022/01/22 11:43:43;;;;;;;;;;;;;;;6.12;100.00;101369.56;6244217;23;19930;-66
2022/01/22 11:46:28;;;;;;;;;;;;;;;6.23;100.00;101363.00;6242016;23;20339;-66
2022/01/22 11:49:11;;;;;;;;;;;;;;;6.14;100.00;101350.00;6243545;22;19911;-66
2022/01/22 11:51:37;;;;;;;;;;;;;;;5.94;100.00;101307.69;6243283;23;19908;-65
2022/01/22 11:54:02;;;;;;;;;;;;;;;6.17;100.00;101304.00;6242692;23;19919;-65
2022/01/22 11:56:29;;;;;;;;;;;;;;;6.11;100.00;101277.41;6242980;23;20244;-65
2022/01/22 11:58:57;;;;;;;;;;;;;;;6.25;100.00;101266.69;6243307;22;19959;-66
2022/01/22 12:01:37;;;;;;;;;;;;;;;6.00;100.00;101209.00;6243153;22;19907;-66
2022/01/22 12:04:03;;;;;;;;;;;;;;;6.14;100.00;101205.88;6243248;23;19916;-66
2022/01/22 12:06:28;;;;;;;;;;;;;;;6.09;100.00;101213.44;6243946;22;19908;-66
2022/01/22 12:09:05;;;;;;;;;;;;;;;6.15;100.00;101218.69;6244592;22;19907;-65
2022/01/22 12:14:43;;;;;;;;;;;;;;;6.61;100.00;101218.78;6243659;23;19962;-66
2022/01/22 12:17:14;;;;;;;;;;;;;;;5.97;100.00;101173.09;6243354;23;19916;-65
2022/01/22 12:19:50;;;;;;;;;;;;;;;6.12;100.00;101149.56;6238435;22;19994;-66
2022/01/22 12:22:48;;;;;;;;;;;;;;;6.27;100.00;101138.75;6259857;22;20595;-66
2022/01/22 12:25:14;;;;;;;;;;;;;;;6.16;100.00;101118.09;6199171;22;21280;-66
2022/01/22 12:27:47;;;;;;;;;;;;;;;6.22;100.00;101090.06;6265911;22;19911;-66
2022/01/22 12:30:13;;;;;;;;;;;;;;;6.49;100.00;101074.34;6267348;22;19915;-66
2022/01/22 12:32:45;;;;;;;;;;;;;;;6.39;100.00;101052.00;6267017;22;20285;-66
2022/01/22 12:35:31;;;;;;;;;;;;;;;6.79;100.00;101039.88;6267448;22;19911;-66
2022/01/22 12:38:13;;;;;;;;;;;;;;;6.58;100.00;100999.41;6238405;22;20406;-66
2022/01/22 12:40:38;;;;;;;;;;;;;;;7.01;100.00;100979.59;6266518;22;19942;-64
2022/01/22 12:43:09;;;;;;;;;;;;;;;6.83;100.00;100938.34;6266252;22;19910;-65
2022/01/22 12:45:35;;;;;;;;;;;;;;;6.63;100.00;100910.75;6266908;22;19918;-65
2022/01/22 12:48:01;;;;;;;;;;;;;;;6.48;100.00;100869.59;6267004;22;20239;-65
2022/01/22 12:50:29;;;;;;;;;;;;;;;6.45;100.00;100859.28;6267827;22;19915;-65
2022/01/22 12:52:55;;;;;;;;;;;;;;;6.28;100.00;100842.00;6266877;22;19911;-65
2022/01/22 12:55:24;;;;;;;;;;;;;;;6.43;100.00;100831.13;6266911;22;20295;-65
2022/01/22 12:57:50;;;;;;;;;;;;;;;6.20;100.00;100830.78;6267379;22;19916;-65
2022/01/22 13:00:18;;;;;;;;;;;;;;;6.29;100.00;100814.69;6268912;22;19912;-65
2022/01/22 13:02:44;;;;;;;;;;;;;;;6.48;100.00;100821.81;6268535;22;19911;-65
2022/01/22 13:05:11;;;;;;;;;;;;;;;6.26;100.00;100801.88;6268794;22;19915;-65
2022/01/22 13:07:40;;;;;;;;;;;;;;;6.58;100.00;100804.88;6266710;22;20350;-65
2022/01/22 13:10:06;;;;;;;;;;;;;;;5.97;100.00;100614.75;6241461;22;19915;-65
2022/01/22 13:12:32;;;;;;;;;;;;;;;6.24;100.00;100757.50;6243917;22;19911;-65
2022/01/22 13:14:57;;;;;;;;;;;;;;;6.25;100.00;100811.25;6270536;22;19912;-67
2022/01/22 13:17:30;;;;;;;;;;;;;;;6.17;100.00;100812.81;6260625;22;19918;-63
2022/01/22 13:19:56;;;;;;;;;;;;;;;6.06;100.00;100839.94;6262246;22;20005;-65
2022/01/22 13:22:29;;;;;;;;;;;;;;;5.96;100.00;100833.81;6266508;22;19951;-65
2022/01/22 13:25:01;;;;;;;;;;;;;;;6.22;100.00;100852.13;6267471;22;19961;-66
2022/01/22 13:27:27;;;;;;;;;;;;;;;6.51;100.00;100851.69;6267635;22;20228;-66
2022/01/22 13:29:54;;;;;;;;;;;;;;;6.32;100.00;100824.09;6266584;22;19961;-66
2022/01/22 13:35:09;;;;;;;;;;;;;;;6.44;100.00;100826.88;6240741;22;20343;-66
2022/01/22 13:40:35;;;;;;;;;;;;;;;6.73;100.00;100818.69;6266738;22;19911;-66
2022/01/22 13:48:28;;;;;;;;;;;;;;;6.46;100.00;100797.03;6266815;22;19911;-67
2022/01/22 13:50:54;;;;;;;;;;;;;;;6.42;100.00;100796.13;6267364;22;19922;-67
2022/01/22 13:53:19;;;;;;;;;;;;;;;6.41;100.00;100785.84;6267684;22;19915;-67
2022/01/22 13:56:08;;;;;;;;;;;;;;;6.10;100.00;100777.75;6267570;22;19917;-67
2022/01/22 13:58:33;;;;;;;;;;;;;;;6.30;100.00;100778.06;6240810;22;19969;-67
2022/01/22 14:01:05;;;;;;;;;;;;;;;6.53;100.00;100782.63;6266120;22;20365;-66
2022/01/22 14:03:44;;;;;;;;;;;;;;;6.41;100.00;100771.38;6262218;22;19952;-67
2022/01/22 14:06:09;;;;;;;;;;;;;;;6.28;100.00;100762.66;6266034;22;19919;-67
2022/01/22 14:08:36;;;;;;;;;;;;;;;6.35;100.00;100760.22;6265857;22;19915;-67
2022/01/22 14:11:08;;;;;;;;;;;;;;;6.56;100.00;100769.84;6267459;22;19915;-67
2022/01/22 14:13:34;;;;;;;;;;;;;;;6.38;100.00;100763.66;6267071;22;19914;-67
2022/01/22 14:16:16;;;;;;;;;;;;;;;6.33;100.00;100755.06;6239105;22;20250;-66
2022/01/22 14:18:43;;;;;;;;;;;;;;;6.33;100.00;100754.19;6269248;22;19915;-65
2022/01/22 14:21:18;;;;;;;;;;;;;;;6.45;100.00;100762.03;6268646;22;19915;-66
2022/01/22 14:23:44;;;;;;;;;;;;;;;6.35;100.00;100755.09;6242093;22;19918;-66
2022/01/22 14:26:13;;;;;;;;;;;;;;;6.55;100.00;100752.78;6268144;22;19915;-66
2022/01/22 14:28:38;;;;;;;;;;;;;;;6.34;100.00;100748.22;6269199;22;19961;-65
2022/01/22 14:31:21;;;;;;;;;;;;;;;6.58;100.00;100732.34;6269302;22;19994;-66
2022/01/22 14:33:47;;;;;;;;;;;;;;;6.35;100.00;100719.25;6269193;22;19911;-66
2022/01/22 14:36:17;;;;;;;;;;;;;;;6.36;100.00;100711.59;6270184;22;19982;-64
2022/01/22 14:38:48;;;;;;;;;;;;;;;6.47;100.00;100712.59;6239606;22;19911;-66
2022/01/22 14:46:53;;;;;;;;;;;;;;;6.60;100.00;100688.00;6270551;22;19914;-66
2022/01/22 14:49:35;;;;;;;;;;;;;;;6.48;100.00;100680.19;6243401;22;19915;-66
2022/01/22 18:34:47;;;;;;;;;;;;;;;4.92;100.00;101757.00;6258410;22;19926;-79
2022/01/22 18:37:12;;;;;;;;;;;;;;;4.87;100.00;101752.56;6211961;22;20394;-79
2022/01/22 18:39:38;;;;;;;;;;;;;;;4.72;100.00;101737.56;6240354;22;20219;-79
2022/01/22 18:42:07;;;;;;;;;;;;;;;5.00;100.00;101747.09;6269684;22;19907;-80
2022/01/22 18:44:32;;;;;;;;;;;;;;;4.85;100.00;101737.19;6188562;23;19915;-80
2022/01/22 18:46:57;;;;;;;;;;;;;;;4.81;100.00;101730.22;6207767;23;19931;-80
2022/01/22 18:49:23;;;;;;;;;;;;;;;4.82;100.00;101719.22;6210858;23;19923;-79
2022/01/22 18:51:51;;;;;;;;;;;;;;;4.91;100.00;101721.22;6209177;23;19943;-81
2022/01/22 18:54:18;;;;;;;;;;;;;;;4.96;100.00;101718.00;6203890;23;19911;-81
2022/01/22 18:56:45;;;;;;;;;;;;;;;4.73;100.00;101695.91;6204050;23;19907;-80
2022/01/22 18:59:12;;;;;;;;;;;;;;;4.86;100.00;101702.31;6206486;23;19911;-81
2022/01/22 19:01:40;;;;;;;;;;;;;;;4.79;100.00;101688.47;6206577;23;19907;-81
2022/01/22 19:04:08;;;;;;;;;;;;;;;4.80;100.00;101701.28;6206823;23;19973;-80
2022/01/22 19:06:35;;;;;;;;;;;;;;;4.87;100.00;101709.16;6208406;23;19907;-80
2022/01/22 19:09:01;;;;;;;;;;;;;;;4.96;100.00;101704.38;6183405;23;19932;-80
2022/01/22 19:11:26;;;;;;;;;;;;;;;4.96;100.00;101712.03;6184852;23;19938;-79
2022/01/22 19:13:51;;;;;;;;;;;;;;;4.87;100.00;101697.25;6208580;23;19919;-80
2022/01/22 19:16:17;;;;;;;;;;;;;;;4.82;100.00;101693.69;6207465;23;19911;-81
2022/01/22 19:18:42;;;;;;;;;;;;;;;4.86;100.00;101685.31;6216065;23;19908;-80
2022/01/22 19:21:18;;;;;;;;;;;;;;;4.87;100.00;101675.97;6219093;23;19912;-78
2022/01/22 19:23:53;;;;;;;;;;;;;;;4.83;100.00;101674.97;6220715;23;19911;-79
2022/01/22 19:29:06;;;;;;;;;;;;;;;4.93;100.00;101673.63;6224902;23;20292;-80
2022/01/22 19:31:31;;;;;;;;;;;;;;;4.79;100.00;101661.25;6221942;23;20335;-80
2022/01/22 19:33:57;;;;;;;;;;;;;;;4.85;100.00;101642.72;6220625;23;19922;-78
2022/01/22 19:36:23;;;;;;;;;;;;;;;4.88;100.00;101627.53;6221193;23;20291;-78
2022/01/22 19:38:49;;;;;;;;;;;;;;;4.76;100.00;101614.31;6223758;23;19955;-79
2022/01/22 19:41:17;;;;;;;;;;;;;;;4.75;100.00;101604.94;6222191;23;19908;-79
2022/01/22 19:43:46;;;;;;;;;;;;;;;4.75;100.00;101584.53;6195705;23;19965;-80
2022/01/22 19:46:12;;;;;;;;;;;;;;;4.90;100.00;101579.03;6196744;23;19911;-78
2022/01/22 19:48:38;;;;;;;;;;;;;;;4.81;100.00;101548.97;6220413;23;20028;-79
2022/01/22 19:51:03;;;;;;;;;;;;;;;4.91;100.00;101538.25;6197303;23;20340;-80
2022/01/22 19:53:29;;;;;;;;;;;;;;;4.90;100.00;101521.16;6248002;23;19955;-79
2022/01/22 19:55:55;;;;;;;;;;;;;;;4.93;100.00;101513.63;6196343;23;20288;-80
2022/01/22 19:58:23;;;;;;;;;;;;;;;4.86;100.00;101496.38;6217424;23;19915;-80
2022/01/22 20:00:49;;;;;;;;;;;;;;;4.98;100.00;101486.53;6216786;23;19915;-79
2022/01/22 20:03:15;;;;;;;;;;;;;;;4.75;100.00;101451.78;6187046;23;19911;-80
2022/01/22 20:05:41;;;;;;;;;;;;;;;4.90;100.00;101446.25;6219200;23;19914;-80
2022/01/22 20:08:07;;;;;;;;;;;;;;;4.74;100.00;101427.91;6192112;23;19911;-79
2022/01/22 20:10:33;;;;;;;;;;;;;;;4.71;100.00;101414.22;6247491;23;19912;-79
2022/01/22 20:13:02;;;;;;;;;;;;;;;4.77;100.00;101411.84;6220400;23;19920;-80
2022/01/22 20:15:28;;;;;;;;;;;;;;;4.85;100.00;101412.06;6247865;23;19911;-78
2022/01/22 20:17:54;;;;;;;;;;;;;;;4.87;100.00;101411.28;6220876;23;19959;-79
2022/01/22 20:20:21;;;;;;;;;;;;;;;4.76;100.00;101407.56;6219170;23;19934;-80
2022/01/22 20:22:47;;;;;;;;;;;;;;;4.97;100.00;101410.75;6194615;23;19950;-80
2022/01/22 20:25:13;;;;;;;;;;;;;;;4.87;100.00;101400.22;6219476;23;20402;-80
2022/01/22 20:27:38;;;;;;;;;;;;;;;4.82;100.00;101387.31;6191217;23;20172;-79
2022/01/22 20:30:05;;;;;;;;;;;;;;;4.94;100.00;101394.47;6193177;23;19911;-79
2022/01/22 20:32:30;;;;;;;;;;;;;;;4.95;100.00;101394.53;6214986;23;19920;-80
2022/01/22 20:34:56;;;;;;;;;;;;;;;4.82;100.00;101390.72;6197497;22;19965;-80
2022/01/22 20:37:21;;;;;;;;;;;;;;;4.78;100.00;101388.03;6240157;22;20461;-80
2022/01/22 20:39:47;;;;;;;;;;;;;;;4.96;100.00;101383.47;6239259;23;19915;-80
2022/01/22 20:42:12;;;;;;;;;;;;;;;5.28;100.00;101398.84;6214437;23;19911;-80
2022/01/22 20:44:38;;;;;;;;;;;;;;;5.02;100.00;101386.22;6213705;23;19911;-79
2022/01/22 20:47:03;;;;;;;;;;;;;;;4.88;100.00;101376.41;6239193;23;20510;-79
2022/01/22 20:49:29;;;;;;;;;;;;;;;5.10;100.00;101371.09;6214854;23;19950;-79
2022/01/22 20:51:56;;;;;;;;;;;;;;;4.93;100.00;101357.88;6237605;22;19912;-79
2022/01/22 20:54:21;;;;;;;;;;;;;;;4.99;100.00;101360.56;6215365;23;19926;-80
2022/01/22 20:56:47;;;;;;;;;;;;;;;5.07;100.00;101362.50;6213927;23;20472;-79
2022/01/22 20:59:12;;;;;;;;;;;;;;;5.10;100.00;101367.69;6239895;23;20371;-79
2022/01/22 21:01:38;;;;;;;;;;;;;;;5.32;100.00;101364.91;6239484;22;19908;-78
2022/01/22 21:04:04;;;;;;;;;;;;;;;5.28;100.00;101363.09;6239226;22;19915;-78
2022/01/22 21:06:29;;;;;;;;;;;;;;;5.31;100.00;101358.06;6242597;22;20485;-79
2022/01/22 21:08:55;;;;;;;;;;;;;;;5.51;100.00;101360.28;6240168;23;19915;-78
2022/01/22 21:11:21;;;;;;;;;;;;;;;5.58;100.00;101350.25;6214795;23;19912;-79
2022/01/22 21:13:48;;;;;;;;;;;;;;;5.62;100.00;101329.06;6216261;23;19915;-78
2022/01/22 21:16:16;;;;;;;;;;;;;;;5.62;100.00;101305.22;6241813;23;19908;-79
2022/01/22 21:18:41;;;;;;;;;;;;;;;5.44;100.00;101278.34;6240417;23;20172;-79
2022/01/22 21:21:07;;;;;;;;;;;;;;;5.11;100.00;101247.69;6240575;23;20123;-79
2022/01/22 21:23:32;;;;;;;;;;;;;;;5.51;100.00;101263.19;6209970;22;19915;-79
2022/01/22 21:25:59;;;;;;;;;;;;;;;5.66;100.00;101263.56;6214124;23;19920;-78
2022/01/22 21:28:24;;;;;;;;;;;;;;;5.44;100.00;101229.78;6240475;23;19911;-78
2022/01/22 21:30:49;;;;;;;;;;;;;;;5.17;100.00;101212.09;6240130;23;20275;-79
2022/01/22 21:33:23;;;;;;;;;;;;;;;4.98;100.00;101194.56;6237568;22;19930;-78
2022/01/22 21:35:54;;;;;;;;;;;;;;;5.25;100.00;101204.63;6239712;22;19915;-78
2022/01/22 21:40:52;;;;;;;;;;;;;;;4.86;100.00;101199.34;6241290;23;20496;-79
2022/01/22 21:43:17;;;;;;;;;;;;;;;4.82;100.00;101194.16;6238047;23;19912;-78
2022/01/22 21:45:43;;;;;;;;;;;;;;;4.85;100.00;101202.72;6241214;22;19911;-78
2022/01/22 21:48:08;;;;;;;;;;;;;;;4.85;100.00;101208.69;6239728;23;19965;-78
2022/01/22 21:50:33;;;;;;;;;;;;;;;4.79;100.00;101211.09;6235427;23;19950;-78
2022/01/22 21:52:59;;;;;;;;;;;;;;;4.93;100.00;101222.53;6236571;22;19955;-78
2022/01/22 21:55:24;;;;;;;;;;;;;;;4.93;100.00;101227.66;6213769;23;19911;-78
2022/01/22 21:57:50;;;;;;;;;;;;;;;4.80;100.00;101230.69;6239519;23;19912;-78
2022/01/22 22:00:16;;;;;;;;;;;;;;;4.89;100.00;101247.94;6212582;23;19911;-78
2022/01/22 22:02:43;;;;;;;;;;;;;;;4.80;100.00;101256.22;6212230;23;20558;-79
2022/01/22 22:05:09;;;;;;;;;;;;;;;4.85;100.00;101275.06;6238352;22;19934;-79
2022/01/22 22:07:35;;;;;;;;;;;;;;;5.01;100.00;101291.69;6238124;22;19911;-79
2022/01/22 22:10:01;;;;;;;;;;;;;;;4.90;100.00;101303.28;6238943;23;19918;-80
2022/01/22 22:12:27;;;;;;;;;;;;;;;5.29;100.00;101335.84;6237725;23;19915;-79
2022/01/22 22:14:54;;;;;;;;;;;;;;;5.05;100.00;101333.50;6237945;23;20754;-80
2022/01/22 22:17:20;;;;;;;;;;;;;;;5.11;100.00;101344.75;6236584;23;19912;-79
2022/01/22 22:19:46;;;;;;;;;;;;;;;5.07;100.00;101342.06;6238551;23;19946;-79
2022/01/22 22:22:11;;;;;;;;;;;;;;;4.94;100.00;101340.84;6236625;23;19915;-79
2022/01/22 22:24:37;;;;;;;;;;;;;;;4.88;100.00;101340.66;6236934;23;19922;-79
2022/01/22 22:27:02;;;;;;;;;;;;;;;4.96;100.00;101359.63;6211963;23;19912;-79
2022/01/22 22:29:29;;;;;;;;;;;;;;;4.84;100.00;101349.94;6237480;23;20610;-79
2022/01/22 22:31:56;;;;;;;;;;;;;;;4.82;100.00;101366.91;6239893;23;20102;-78
2022/01/22 22:34:22;;;;;;;;;;;;;;;4.82;100.00;101388.19;6214007;23;19922;-79
2022/01/22 22:36:47;;;;;;;;;;;;;;;4.91;100.00;101407.16;6237895;23;19939;-79
2022/01/22 22:39:13;;;;;;;;;;;;;;;4.87;100.00;101406.19;6212932;23;20361;-78
2022/01/22 22:41:39;;;;;;;;;;;;;;;4.89;100.00;101409.66;6212172;23;19911;-80
2022/01/22 22:44:04;;;;;;;;;;;;;;;4.90;100.00;101424.13;6241331;23;19911;-78
2022/01/22 22:46:30;;;;;;;;;;;;;;;4.86;100.00;101447.88;6215723;23;20339;-79
2022/01/22 22:48:56;;;;;;;;;;;;;;;4.82;100.00;101464.78;6240299;23;20309;-80
2022/01/22 22:51:22;;;;;;;;;;;;;;;5.01;100.00;101478.09;6211275;23;19912;-80
2022/01/22 22:53:48;;;;;;;;;;;;;;;4.94;100.00;101469.38;6211279;23;19915;-80
2022/01/22 22:56:15;;;;;;;;;;;;;;;4.91;100.00;101482.06;6239693;23;20331;-78
2022/01/22 22:58:40;;;;;;;;;;;;;;;4.96;100.00;101498.38;6238597;23;20235;-79
2022/01/22 23:01:08;;;;;;;;;;;;;;;5.00;100.00;101509.56;6212202;23;19955;-79
2022/01/22 23:03:35;;;;;;;;;;;;;;;4.97;100.00;101504.34;6236823;23;19912;-80
2022/01/22 23:06:01;;;;;;;;;;;;;;;4.94;100.00;101504.28;6237173;22;19919;-79
2022/01/22 23:08:26;;;;;;;;;;;;;;;4.94;100.00;101507.69;6238389;23;19912;-78
2022/01/22 23:10:53;;;;;;;;;;;;;;;5.06;100.00;101519.97;6244101;23;19985;-79
2022/01/22 23:13:31;;;;;;;;;;;;;;;4.98;100.00;101522.28;6244750;23;19922;-78
2022/01/22 23:16:00;;;;;;;;;;;;;;;4.84;100.00;101525.25;6243082;23;20190;-79
2022/01/22 23:21:25;;;;;;;;;;;;;;;4.80;100.00;101545.53;6242251;23;19912;-79
2022/01/22 23:26:35;;;;;;;;;;;;;;;4.92;100.00;101592.72;6239244;23;20350;-79
2022/01/22 23:29:00;;;;;;;;;;;;;;;4.99;100.00;101600.63;6242713;23;19982;-78
2022/01/22 23:31:45;;;;;;;;;;;;;;;4.82;100.00;101596.66;6218829;23;19918;-78
2022/01/22 23:55:44;;;;;;;;;;;;;;;4.68;100.00;101659.16;6243203;23;19958;-79
2022/01/22 23:58:14;;;;;;;;;;;;;;;4.77;100.00;101674.78;6244372;23;19911;-79
